createdAt,value
2023-04-15T00:24:48.884Z,1006.74
2023-04-15T00:53:29.291Z,1006.74
2023-04-15T01:22:10.922Z,1006.76
2023-04-15T01:50:51.735Z,1006.56
2023-04-15T02:19:32.405Z,1006.63
2023-04-15T02:48:14.097Z,1006.73
2023-04-15T03:16:58.408Z,1006.86
2023-04-15T03:45:34.617Z,1006.67
2023-04-15T04:14:16.117Z,1006.72
2023-04-15T04:43:01.888Z,1006.75
2023-04-15T05:11:38.215Z,1007.02
2023-04-15T05:40:23.041Z,1007.05
2023-04-15T06:08:58.671Z,1007.04
2023-04-15T06:37:40.798Z,1007.1
2023-04-15T07:06:23.574Z,1007.04
2023-04-15T07:35:16.979Z,1006.96
2023-04-15T08:03:38.264Z,1007.25
2023-04-15T08:31:56.354Z,1007.45
2023-04-15T09:00:24.709Z,1007.56
2023-04-15T09:28:54.164Z,1007.79
2023-04-15T09:57:27.952Z,1007.9
2023-04-15T10:25:57.193Z,1007.95
2023-04-15T10:54:37.462Z,1008.11
2023-04-15T11:51:25.421Z,1008.3
2023-04-15T12:20:06.275Z,1008.6
2023-04-15T12:48:47.118Z,1008.94
2023-04-15T13:17:27.231Z,1009.34
2023-04-15T13:45:43.221Z,1009.63
2023-04-15T14:14:24.724Z,1009.9
2023-04-15T14:42:36.066Z,1010.16
2023-04-15T15:39:45.755Z,1010.89
2023-04-15T16:07:57.201Z,1011.11
2023-04-15T16:36:05.319Z,1011.44
2023-04-15T17:04:42.354Z,1011.96
2023-04-15T17:33:58.800Z,1012.44
2023-04-15T18:01:27.134Z,1013.11
2023-04-15T18:29:51.711Z,1013.88
2023-04-15T18:58:26.701Z,1014.68
2023-04-15T19:26:54.954Z,1015.23
2023-04-15T19:55:21.979Z,1015.65
2023-04-15T20:52:29.625Z,1016.17
2023-04-15T21:20:51.278Z,1016.44
2023-04-15T21:49:31.186Z,1016.64
2023-04-15T22:18:08.145Z,1016.95
2023-04-15T22:46:40.138Z,1017.14
2023-04-15T23:15:23.091Z,1017.31
2023-04-15T23:43:38.153Z,1017.43
